createdAt,value
2023-05-19T00:00:31.967Z,70.5499
2023-05-19T00:01:32.869Z,70.6256
2023-05-19T00:02:33.940Z,70.7324
2023-05-19T00:03:34.838Z,70.7867
2023-05-19T00:04:35.907Z,70.8609
2023-05-19T00:05:37.066Z,70.8648
2023-05-19T00:06:38.016Z,70.9734
2023-05-19T00:07:39.014Z,71.0430
2023-05-19T00:08:40.054Z,71.0640
2023-05-19T00:09:41.121Z,71.2019
2023-05-19T00:10:42.186Z,71.2225
2023-05-19T00:11:43.225Z,71.0438
2023-05-19T00:12:44.297Z,71.1007
2023-05-19T00:13:45.287Z,71.1244
2023-05-19T00:14:46.349Z,71.1742
2023-05-19T00:15:47.423Z,71.2480
2023-05-19T00:16:48.409Z,71.2602
2023-05-19T00:17:49.413Z,71.3035
2023-05-19T00:18:50.566Z,71.3907
2023-05-19T00:19:51.490Z,71.2326
2023-05-19T00:20:52.583Z,71.3706
2023-05-19T00:21:53.667Z,71.3237
2023-05-19T00:22:54.631Z,71.3269
2023-05-19T00:23:55.668Z,71.4013
2023-05-19T00:24:56.796Z,71.4829
2023-05-19T00:25:57.812Z,71.4529
2023-05-19T00:26:58.833Z,71.6478
2023-05-19T00:27:59.809Z,71.6408
2023-05-19T00:29:00.863Z,71.4873
2023-05-19T00:30:01.892Z,71.7291
2023-05-19T00:31:03.010Z,71.6506
2023-05-19T00:32:04.026Z,71.7308
2023-05-19T00:33:05.137Z,71.3001
2023-05-19T00:34:06.074Z,71.3270
2023-05-19T00:35:07.097Z,71.6267
2023-05-19T00:36:08.210Z,71.6020
2023-05-19T00:37:09.252Z,71.5731
2023-05-19T00:38:10.233Z,71.8214
2023-05-19T00:39:11.329Z,71.8566
2023-05-19T00:40:12.315Z,71.8432
2023-05-19T00:41:13.429Z,71.7995
2023-05-19T00:42:14.507Z,71.8222
2023-05-19T00:43:15.429Z,71.7401
2023-05-19T00:44:16.490Z,71.7614
2023-05-19T00:45:17.568Z,71.9233
2023-05-19T00:46:18.649Z,72.1184
2023-05-19T00:47:19.679Z,72.0299
2023-05-19T00:48:20.650Z,71.8415
2023-05-19T00:49:21.710Z,72.0350
2023-05-19T00:50:22.746Z,72.0408
2023-05-19T00:51:23.890Z,72.0688
2023-05-19T00:52:24.906Z,71.9803
2023-05-19T00:53:25.852Z,72.0363
2023-05-19T00:54:26.912Z,72.1145
2023-05-19T00:55:27.999Z,72.1184
2023-05-19T00:56:29.099Z,72.2227
2023-05-19T00:57:30.106Z,72.3009
2023-05-19T00:58:31.219Z,72.4177
2023-05-19T00:59:32.153Z,72.4469
2023-05-19T01:00:33.421Z,72.5591
2023-05-19T01:01:34.385Z,72.6979
2023-05-19T01:02:35.392Z,72.9589
2023-05-19T01:03:36.473Z,73.1297
2023-05-19T01:04:37.308Z,73.2829
2023-05-19T01:05:38.412Z,73.3234
2023-05-19T01:06:39.452Z,73.3704
2023-05-19T01:07:40.509Z,73.3953
2023-05-19T01:08:41.522Z,73.5417
2023-05-19T01:09:42.552Z,73.6069
2023-05-19T01:10:43.579Z,73.6710
2023-05-19T01:11:44.687Z,73.7776
2023-05-19T01:12:45.697Z,73.9304
2023-05-19T01:13:46.725Z,74.0749
2023-05-19T01:14:47.757Z,74.3421
2023-05-19T01:15:48.838Z,74.3206
2023-05-19T01:16:49.938Z,74.2193
2023-05-19T01:17:50.935Z,74.2432
2023-05-19T01:18:51.937Z,74.4316
2023-05-19T01:19:53.011Z,74.2928
2023-05-19T01:20:54.027Z,74.0982
2023-05-19T01:21:55.106Z,73.7876
2023-05-19T01:22:56.113Z,73.7848
2023-05-19T01:23:57.200Z,73.8212
2023-05-19T01:24:58.150Z,73.5351
2023-05-19T01:25:59.185Z,73.4639
2023-05-19T01:27:00.331Z,73.5645
2023-05-19T01:28:01.370Z,73.8842
2023-05-19T01:29:02.379Z,73.8129
2023-05-19T01:30:03.407Z,73.5721
2023-05-19T01:31:04.446Z,73.8386
2023-05-19T01:32:05.599Z,73.9740
2023-05-19T01:33:06.610Z,74.0740
2023-05-19T01:34:07.663Z,73.9771
2023-05-19T01:35:08.594Z,73.8598
2023-05-19T01:36:09.741Z,73.8376
2023-05-19T01:37:10.786Z,73.9499
2023-05-19T01:38:11.791Z,73.9647
2023-05-19T01:39:12.792Z,73.7119
2023-05-19T01:40:13.813Z,73.6391
2023-05-19T01:41:14.948Z,73.5710
2023-05-19T01:42:15.935Z,73.8020
2023-05-19T01:43:16.985Z,73.9046
2023-05-19T01:44:18.082Z,73.7165
2023-05-19T01:45:19.100Z,74.0180
2023-05-19T01:46:20.098Z,74.0362
2023-05-19T01:47:21.239Z,74.0256
2023-05-19T01:48:22.200Z,73.8949
2023-05-19T01:49:23.219Z,73.8930
2023-05-19T01:50:24.264Z,74.0348
2023-05-19T01:51:25.296Z,74.0270
2023-05-19T01:52:26.377Z,73.8523
2023-05-19T01:53:27.416Z,73.9604
2023-05-19T01:54:28.416Z,74.2529
2023-05-19T01:55:29.473Z,74.1929
2023-05-19T01:56:30.494Z,74.1108
2023-05-19T01:57:31.593Z,74.3134
2023-05-19T01:58:32.694Z,74.5873
2023-05-19T01:59:33.638Z,74.2884
2023-05-19T02:00:34.815Z,74.3681
2023-05-19T02:01:35.753Z,74.4790
2023-05-19T02:02:36.839Z,74.4981
2023-05-19T02:03:37.857Z,74.5997
2023-05-19T02:04:38.877Z,74.5654
2023-05-19T02:05:39.940Z,74.5587
2023-05-19T02:06:40.960Z,74.6372
2023-05-19T02:07:42.017Z,74.5124
2023-05-19T02:08:43.126Z,74.4832
2023-05-19T02:09:44.037Z,74.5957
2023-05-19T02:10:45.137Z,74.6858
2023-05-19T02:11:46.113Z,74.7682
2023-05-19T02:12:47.191Z,74.7069
2023-05-19T02:13:48.268Z,74.5911
2023-05-19T02:14:49.270Z,74.5132
2023-05-19T02:15:50.374Z,74.6759
2023-05-19T02:16:51.350Z,74.6832
2023-05-19T02:17:52.461Z,74.5927
2023-05-19T02:18:53.541Z,74.4151
2023-05-19T02:19:54.469Z,74.5553
2023-05-19T02:20:55.494Z,74.7733
2023-05-19T02:21:56.550Z,74.7867
2023-05-19T02:22:57.656Z,74.8862
2023-05-19T02:23:58.723Z,74.8660
2023-05-19T02:24:59.673Z,74.8866
2023-05-19T02:26:00.717Z,74.9340
2023-05-19T02:27:01.736Z,74.8277
2023-05-19T02:28:02.838Z,74.8454
2023-05-19T02:29:03.858Z,75.1402
2023-05-19T02:30:04.845Z,75.2658
2023-05-19T02:31:05.945Z,75.2886
2023-05-19T02:32:07.027Z,75.2311
2023-05-19T02:33:08.082Z,75.2013
2023-05-19T02:34:09.053Z,75.4234
2023-05-19T02:35:10.025Z,75.1592
2023-05-19T02:36:11.085Z,75.2560
2023-05-19T02:37:12.118Z,75.2456
2023-05-19T02:38:13.225Z,75.3239
2023-05-19T02:39:14.296Z,75.4282
2023-05-19T02:40:15.338Z,75.4648
2023-05-19T02:41:16.311Z,75.4851
2023-05-19T02:42:17.334Z,75.4403
2023-05-19T02:43:18.426Z,75.4052
2023-05-19T02:44:19.446Z,75.2989
2023-05-19T02:45:20.470Z,75.4269
2023-05-19T02:46:21.559Z,75.6358
2023-05-19T02:47:22.605Z,75.6713
2023-05-19T02:48:23.605Z,75.7554
2023-05-19T02:49:24.656Z,75.8353
2023-05-19T02:50:25.652Z,75.7195
2023-05-19T02:51:26.709Z,75.8601
2023-05-19T02:52:27.727Z,75.9608
2023-05-19T02:53:28.806Z,75.7605
2023-05-19T02:54:29.855Z,75.9915
2023-05-19T02:55:30.865Z,75.8403
2023-05-19T02:56:31.907Z,75.8691
2023-05-19T02:57:32.964Z,75.8254
2023-05-19T02:58:34.040Z,75.9856
2023-05-19T02:59:35.115Z,75.9364
2023-05-19T03:00:36.060Z,76.0373
2023-05-19T03:01:37.185Z,76.0453
2023-05-19T03:02:38.313Z,76.0815
2023-05-19T03:03:39.329Z,76.0990
2023-05-19T03:04:40.253Z,76.3110
2023-05-19T03:05:41.327Z,76.2212
2023-05-19T03:06:42.307Z,76.2727
2023-05-19T03:07:43.425Z,76.2671
2023-05-19T03:08:44.429Z,76.1578
2023-05-19T03:09:45.522Z,76.2428
2023-05-19T03:10:46.465Z,76.2316
2023-05-19T03:11:47.489Z,76.3545
2023-05-19T03:12:48.610Z,76.1811
2023-05-19T03:13:49.617Z,76.2074
2023-05-19T03:14:50.665Z,76.4211
2023-05-19T03:15:51.698Z,76.3060
2023-05-19T03:16:52.918Z,76.3912
2023-05-19T03:17:53.784Z,76.4795
2023-05-19T03:18:54.903Z,76.7818
2023-05-19T03:19:55.899Z,76.6727
2023-05-19T03:20:56.922Z,76.6661
2023-05-19T03:21:57.893Z,76.7242
2023-05-19T03:22:59.018Z,76.7476
2023-05-19T03:24:00.100Z,77.1040
2023-05-19T03:25:01.087Z,77.0042
2023-05-19T03:26:02.054Z,76.9883
2023-05-19T03:27:03.194Z,76.8842
2023-05-19T03:28:04.152Z,77.0104
2023-05-19T03:29:05.240Z,77.0653
2023-05-19T03:30:06.726Z,77.2288
2023-05-19T03:31:07.337Z,77.1365
2023-05-19T03:32:08.296Z,77.0366
2023-05-19T03:33:09.522Z,77.0888
2023-05-19T03:34:10.395Z,77.3918
2023-05-19T03:35:11.512Z,77.3368
2023-05-19T03:36:12.496Z,77.6537
2023-05-19T03:37:13.519Z,77.7669
2023-05-19T03:38:14.536Z,77.8370
2023-05-19T03:39:15.692Z,77.7142
2023-05-19T03:40:16.691Z,77.6010
2023-05-19T03:41:17.733Z,78.1183
2023-05-19T03:42:18.697Z,78.0187
2023-05-19T03:43:19.755Z,78.1133
2023-05-19T03:44:20.869Z,78.0936
2023-05-19T03:45:21.923Z,77.9988
2023-05-19T03:46:22.983Z,78.0352
2023-05-19T03:47:23.959Z,78.0028
2023-05-19T03:48:24.959Z,77.8210
2023-05-19T03:49:26.026Z,77.9069
2023-05-19T03:50:27.157Z,77.9892
2023-05-19T03:51:28.069Z,78.1467
2023-05-19T03:52:29.137Z,78.2724
2023-05-19T03:53:30.148Z,78.2287
2023-05-19T03:54:31.274Z,78.2531
2023-05-19T03:55:32.257Z,78.1905
2023-05-19T03:56:33.311Z,78.1154
2023-05-19T03:57:34.309Z,78.1214
2023-05-19T03:58:35.392Z,78.4275
2023-05-19T03:59:36.421Z,78.7628
2023-05-19T04:00:37.558Z,78.3278
2023-05-19T04:01:38.500Z,78.2111
2023-05-19T04:02:39.654Z,78.2945
2023-05-19T04:03:40.618Z,78.6103
2023-05-19T04:04:41.682Z,78.4205
2023-05-19T04:05:42.709Z,78.3277
2023-05-19T04:06:43.695Z,78.3388
2023-05-19T04:07:44.715Z,78.2846
2023-05-19T04:08:45.800Z,78.3100
2023-05-19T04:09:46.860Z,78.4269
2023-05-19T04:10:47.907Z,78.6883
2023-05-19T04:11:48.931Z,78.8556
2023-05-19T04:12:49.954Z,78.8868
2023-05-19T04:13:51.030Z,78.7214
2023-05-19T04:14:52.095Z,78.7209
2023-05-19T04:15:53.230Z,78.6348
2023-05-19T04:16:54.151Z,78.6482
2023-05-19T04:17:55.225Z,78.5469
2023-05-19T04:18:56.304Z,78.5476
2023-05-19T04:19:57.324Z,78.5686
2023-05-19T04:20:58.334Z,78.8413
2023-05-19T04:21:59.349Z,79.1325
2023-05-19T04:23:00.403Z,79.2081
2023-05-19T04:24:01.455Z,79.1048
2023-05-19T04:25:02.569Z,79.3568
2023-05-19T04:26:03.596Z,79.5398
2023-05-19T04:27:04.657Z,79.6442
2023-05-19T04:28:05.618Z,79.6702
2023-05-19T04:29:06.735Z,79.7588
2023-05-19T04:30:07.818Z,79.6561
2023-05-19T04:31:08.860Z,79.7228
2023-05-19T04:32:09.871Z,79.7174
2023-05-19T04:33:10.870Z,79.8682
2023-05-19T04:34:11.928Z,79.7812
2023-05-19T04:35:13.086Z,79.6725
2023-05-19T04:36:14.058Z,79.6831
2023-05-19T04:37:15.076Z,79.7911
2023-05-19T04:38:16.054Z,79.7178
2023-05-19T04:39:17.126Z,79.7019
2023-05-19T04:40:18.233Z,79.8271
2023-05-19T04:41:19.283Z,79.8569
2023-05-19T04:42:20.295Z,79.7891
2023-05-19T04:43:21.297Z,79.8159
2023-05-19T04:44:22.336Z,79.8886
2023-05-19T04:45:23.421Z,79.6510
2023-05-19T04:46:24.585Z,79.6285
2023-05-19T04:47:25.516Z,79.3874
2023-05-19T04:48:26.591Z,79.3960
2023-05-19T04:49:27.594Z,79.2982
2023-05-19T04:50:28.700Z,79.2720
2023-05-19T04:51:30.665Z,79.2128
2023-05-19T04:52:30.676Z,79.0720
2023-05-19T04:53:31.737Z,79.0563
2023-05-19T04:54:32.871Z,78.8718
2023-05-19T04:55:33.879Z,78.7943
2023-05-19T04:56:34.984Z,78.8201
2023-05-19T04:57:35.913Z,78.9909
2023-05-19T04:58:36.954Z,79.0460
2023-05-19T04:59:37.985Z,78.8607
2023-05-19T05:00:39.090Z,79.0372
2023-05-19T05:01:40.207Z,78.8450
2023-05-19T05:02:41.186Z,78.5593
2023-05-19T05:03:42.245Z,78.4999
2023-05-19T05:04:43.230Z,78.4241
2023-05-19T05:05:44.323Z,78.5280
2023-05-19T05:06:45.352Z,78.5598
2023-05-19T05:07:46.327Z,78.4451
2023-05-19T05:08:47.403Z,78.2263
2023-05-19T05:09:48.476Z,78.0364
2023-05-19T05:10:49.547Z,78.1356
2023-05-19T05:11:50.572Z,78.0958
2023-05-19T05:12:51.676Z,78.0979
2023-05-19T05:13:52.632Z,77.8657
2023-05-19T05:14:53.728Z,77.7402
2023-05-19T05:15:54.783Z,77.6057
2023-05-19T05:16:55.811Z,77.3022
2023-05-19T05:17:56.939Z,77.3374
2023-05-19T05:18:57.904Z,77.6257
2023-05-19T05:19:58.906Z,77.7523
2023-05-19T05:20:59.947Z,77.6745
2023-05-19T05:22:01.052Z,77.2436
2023-05-19T05:23:01.990Z,77.4248
2023-05-19T05:24:03.006Z,78.0636
2023-05-19T05:25:04.109Z,77.6253
2023-05-19T05:26:05.157Z,77.5721
2023-05-19T05:27:06.270Z,77.6989
2023-05-19T05:28:07.330Z,77.5880
2023-05-19T05:29:08.333Z,77.5881
2023-05-19T05:30:09.329Z,77.7038
2023-05-19T05:31:10.461Z,77.3907
2023-05-19T05:32:11.493Z,77.3909
2023-05-19T05:33:12.748Z,77.3405
2023-05-19T05:34:13.530Z,77.4546
2023-05-19T05:35:14.563Z,77.5857
2023-05-19T05:36:15.665Z,77.2898
2023-05-19T05:37:16.697Z,77.3543
2023-05-19T05:38:17.736Z,77.4185
2023-05-19T05:39:18.750Z,77.4380
2023-05-19T05:40:19.774Z,77.4533
2023-05-19T05:41:20.823Z,77.7327
2023-05-19T05:42:21.950Z,77.8655
2023-05-19T05:43:22.910Z,77.8304
2023-05-19T05:44:23.939Z,77.5609
2023-05-19T05:45:24.997Z,77.5401
2023-05-19T05:46:26.195Z,77.4081
2023-05-19T05:47:27.153Z,77.3881
2023-05-19T05:48:28.108Z,77.4672
2023-05-19T05:49:29.145Z,77.6701
2023-05-19T05:50:30.187Z,77.9802
2023-05-19T05:51:31.249Z,77.9778
2023-05-19T05:52:32.294Z,78.1457
2023-05-19T05:53:33.295Z,77.9095
2023-05-19T05:54:34.337Z,77.3535
2023-05-19T05:55:35.546Z,77.5995
2023-05-19T05:56:36.513Z,77.8723
2023-05-19T05:57:37.565Z,77.9279
2023-05-19T05:58:38.517Z,78.3067
2023-05-19T05:59:39.554Z,78.2148
2023-05-19T06:00:40.593Z,78.1674
2023-05-19T06:01:41.721Z,77.8346
2023-05-19T06:02:42.820Z,77.7295
2023-05-19T06:03:43.835Z,78.0845
2023-05-19T06:04:44.751Z,78.0443
2023-05-19T06:05:45.829Z,77.8155
2023-05-19T06:06:46.862Z,77.7722
2023-05-19T06:07:47.940Z,77.5830
2023-05-19T06:08:48.906Z,77.7818
2023-05-19T06:09:49.953Z,77.8006
2023-05-19T06:10:51.018Z,77.6710
2023-05-19T06:11:52.075Z,77.6245
2023-05-19T06:12:53.130Z,77.6905
2023-05-19T06:13:54.113Z,78.3357
2023-05-19T06:14:55.138Z,78.3215
2023-05-19T06:15:56.208Z,78.2500
2023-05-19T06:16:57.389Z,78.3016
2023-05-19T06:17:58.367Z,77.9545
2023-05-19T06:18:59.452Z,77.8613
2023-05-19T06:20:00.340Z,77.9376
2023-05-19T06:21:01.503Z,78.3338
2023-05-19T06:22:02.524Z,78.0413
2023-05-19T06:23:03.544Z,78.2409
2023-05-19T06:24:04.538Z,78.1195
2023-05-19T06:25:05.632Z,78.2810
2023-05-19T06:26:06.611Z,78.5645
2023-05-19T06:27:07.825Z,78.5972
2023-05-19T06:28:08.796Z,78.5398
2023-05-19T06:29:09.730Z,78.5125
2023-05-19T06:30:10.788Z,79.0827
2023-05-19T06:31:11.841Z,79.0023
2023-05-19T06:32:12.880Z,78.8779
2023-05-19T06:33:14.002Z,78.7036
2023-05-19T06:34:14.943Z,78.9926
2023-05-19T06:35:16.065Z,78.7385
2023-05-19T06:36:17.119Z,78.3967
2023-05-19T06:37:18.216Z,78.6019
2023-05-19T06:38:19.162Z,79.0963
2023-05-19T06:39:20.192Z,78.4870
2023-05-19T06:40:21.200Z,78.4512
2023-05-19T06:41:22.391Z,78.4606
2023-05-19T06:42:23.327Z,78.4334
2023-05-19T06:43:24.396Z,78.6934
2023-05-19T06:44:25.356Z,78.4803
2023-05-19T06:45:26.439Z,78.5018
2023-05-19T06:46:27.460Z,78.6424
2023-05-19T06:47:28.566Z,78.4975
2023-05-19T06:48:29.631Z,78.5196
2023-05-19T06:49:30.612Z,78.8705
2023-05-19T06:50:31.843Z,79.0113
2023-05-19T06:51:32.670Z,79.3549
2023-05-19T06:52:33.860Z,79.1189
2023-05-19T06:53:34.816Z,78.9786
2023-05-19T06:54:35.775Z,78.9557
2023-05-19T06:55:41.400Z,78.7938
2023-05-19T06:56:37.908Z,78.5230
2023-05-19T06:57:38.946Z,78.6679
2023-05-19T06:58:39.921Z,78.6720
2023-05-19T06:59:40.901Z,78.8781
2023-05-19T07:00:41.965Z,78.9434
2023-05-19T07:01:43.077Z,79.3950
2023-05-19T07:02:44.152Z,79.2317
2023-05-19T07:03:45.156Z,79.1054
2023-05-19T07:04:46.105Z,79.1377
2023-05-19T07:05:47.133Z,79.4726
2023-05-19T07:06:48.185Z,79.3480
2023-05-19T07:07:49.253Z,79.0002
2023-05-19T07:08:51.816Z,78.6323
2023-05-19T07:09:51.312Z,78.4007
2023-05-19T07:10:52.380Z,77.8717
2023-05-19T07:11:53.373Z,77.9154
2023-05-19T07:12:54.492Z,77.9304
2023-05-19T07:13:55.616Z,78.0249
2023-05-19T07:14:56.590Z,78.1565
2023-05-19T07:15:57.601Z,78.3223
2023-05-19T07:16:58.607Z,77.9808
2023-05-19T07:17:59.724Z,78.0194
2023-05-19T07:19:00.800Z,78.3850
2023-05-19T07:20:01.731Z,78.1635
2023-05-19T07:21:02.788Z,78.2237
2023-05-19T07:22:03.822Z,77.8547
2023-05-19T07:23:04.901Z,77.6101
2023-05-19T07:24:05.932Z,77.4779
2023-05-19T07:25:06.993Z,77.4774
2023-05-19T07:26:07.965Z,77.4521
2023-05-19T07:27:09.071Z,77.2321
2023-05-19T07:28:10.135Z,77.7957
2023-05-19T07:29:11.204Z,77.5864
2023-05-19T07:30:12.223Z,77.2970
2023-05-19T07:31:13.208Z,77.4131
2023-05-19T07:32:14.344Z,77.3522
2023-05-19T07:33:15.395Z,76.9960
2023-05-19T07:34:16.349Z,76.9943
2023-05-19T07:35:17.415Z,77.1234
2023-05-19T07:36:18.405Z,77.5082
2023-05-19T07:37:19.499Z,77.2690
2023-05-19T07:38:20.505Z,77.2286
2023-05-19T07:39:21.609Z,77.1888
2023-05-19T07:40:22.594Z,77.4063
2023-05-19T07:41:23.640Z,76.8636
2023-05-19T07:42:24.699Z,77.0037
2023-05-19T07:43:25.696Z,77.0989
2023-05-19T07:44:26.750Z,76.9178
2023-05-19T07:45:27.848Z,76.9628
2023-05-19T07:46:28.993Z,76.7275
2023-05-19T07:47:30.023Z,76.7752
2023-05-19T07:48:30.890Z,77.0347
2023-05-19T07:49:32.011Z,77.0225
2023-05-19T07:50:33.140Z,76.4857
2023-05-19T07:51:34.019Z,76.5083
2023-05-19T07:52:35.083Z,76.6638
2023-05-19T07:53:36.135Z,76.6705
2023-05-19T07:54:37.164Z,76.0994
2023-05-19T07:55:38.208Z,75.8507
2023-05-19T07:56:39.214Z,75.9342
2023-05-19T07:57:40.540Z,76.2937
2023-05-19T07:58:41.332Z,76.1392
2023-05-19T07:59:42.386Z,76.3330
2023-05-19T08:00:43.435Z,75.7911
2023-05-19T08:01:44.418Z,75.7703
2023-05-19T08:02:45.493Z,75.7485
2023-05-19T08:03:46.545Z,76.1419
2023-05-19T08:04:47.680Z,75.7468
2023-05-19T08:05:48.657Z,75.9102
2023-05-19T08:06:49.591Z,75.7274
2023-05-19T08:07:50.691Z,76.3620
2023-05-19T08:08:51.747Z,76.0168
2023-05-19T08:09:52.817Z,76.1524
2023-05-19T08:10:53.847Z,76.1640
2023-05-19T08:11:54.873Z,76.2273
2023-05-19T08:12:56.138Z,76.8112
2023-05-19T08:13:56.926Z,77.2015
2023-05-19T08:14:59.734Z,77.2514
2023-05-19T08:15:59.090Z,77.2001
2023-05-19T08:17:00.039Z,76.9879
2023-05-19T08:18:01.151Z,76.9082
2023-05-19T08:19:02.173Z,76.7586
2023-05-19T08:20:03.219Z,76.6558
2023-05-19T08:21:04.247Z,76.5053
2023-05-19T08:22:05.253Z,76.3387
2023-05-19T08:23:06.271Z,76.3246
2023-05-19T08:24:07.352Z,76.3070
2023-05-19T08:25:08.438Z,76.2632
2023-05-19T08:26:09.505Z,76.3356
2023-05-19T08:27:10.482Z,76.2132
2023-05-19T08:28:11.620Z,76.3830
2023-05-19T08:29:12.522Z,76.4236
2023-05-19T08:30:13.645Z,76.4314
2023-05-19T08:31:14.704Z,76.3875
2023-05-19T08:32:15.698Z,76.4525
2023-05-19T08:33:16.701Z,76.7631
2023-05-19T08:34:17.746Z,77.1635
2023-05-19T08:35:18.865Z,77.0582
2023-05-19T08:36:20.055Z,77.0414
2023-05-19T08:37:20.907Z,77.2097
2023-05-19T08:38:21.954Z,77.0723
2023-05-19T08:39:22.945Z,77.1033
2023-05-19T08:40:24.067Z,76.8168
2023-05-19T08:41:25.128Z,76.3576
2023-05-19T08:42:26.152Z,76.2832
2023-05-19T08:43:27.148Z,76.0035
2023-05-19T08:44:28.161Z,76.0470
2023-05-19T08:45:29.465Z,75.9396
2023-05-19T08:46:30.309Z,75.3429
2023-05-19T08:47:31.337Z,75.6237
2023-05-19T08:48:32.323Z,76.2466
2023-05-19T08:49:33.346Z,76.5029
2023-05-19T08:50:34.741Z,76.3369
2023-05-19T08:51:35.497Z,75.8488
2023-05-19T08:52:36.557Z,75.6656
2023-05-19T08:53:37.519Z,75.0481
2023-05-19T08:54:38.540Z,75.0043
2023-05-19T08:55:39.625Z,74.8896
2023-05-19T08:56:40.660Z,74.5645
2023-05-19T08:57:41.699Z,74.3543
2023-05-19T08:58:42.786Z,74.3254
2023-05-19T08:59:43.781Z,74.2559
2023-05-19T09:00:44.848Z,74.3151
2023-05-19T09:01:46.027Z,74.1294
2023-05-19T09:02:55.467Z,74.1314
2023-05-19T09:03:47.974Z,74.8631
2023-05-19T09:04:49.015Z,74.9526
2023-05-19T09:05:50.073Z,74.1887
2023-05-19T09:06:51.054Z,74.7450
2023-05-19T09:07:52.165Z,75.1328
2023-05-19T09:08:53.381Z,74.4494
2023-05-19T09:09:54.137Z,74.3812
2023-05-19T09:10:55.264Z,74.5676
2023-05-19T09:11:56.306Z,74.2444
2023-05-19T09:12:57.302Z,74.2019
2023-05-19T09:13:58.316Z,74.6241
2023-05-19T09:14:59.374Z,74.8079
2023-05-19T09:16:00.390Z,74.4955
2023-05-19T09:17:01.575Z,74.3824
2023-05-19T09:18:02.558Z,75.3002
2023-05-19T09:19:03.620Z,75.6117
2023-05-19T09:20:04.574Z,75.0923
2023-05-19T09:21:05.603Z,75.0528
2023-05-19T09:22:06.718Z,75.3715
2023-05-19T09:23:07.703Z,75.5068
2023-05-19T09:24:08.726Z,75.4251
2023-05-19T09:25:09.740Z,75.3930
2023-05-19T09:26:10.752Z,75.2890
2023-05-19T09:27:11.859Z,75.0923
2023-05-19T09:28:12.943Z,74.8102
2023-05-19T09:29:13.992Z,74.7654
2023-05-19T09:30:15.007Z,75.1505
2023-05-19T09:31:16.042Z,75.0331
2023-05-19T09:32:17.096Z,75.5215
2023-05-19T09:33:18.172Z,75.7513
2023-05-19T09:34:19.298Z,75.8046
2023-05-19T09:35:20.229Z,75.7918
2023-05-19T09:36:21.182Z,75.2277
2023-05-19T09:37:22.323Z,75.1101
2023-05-19T09:38:23.300Z,75.0969
2023-05-19T09:39:24.401Z,75.1978
2023-05-19T09:40:25.479Z,75.0360
2023-05-19T09:41:26.422Z,74.4627
2023-05-19T09:42:27.458Z,74.7174
2023-05-19T09:43:28.639Z,74.2139
2023-05-19T09:44:29.718Z,74.4650
2023-05-19T09:45:30.665Z,73.6079
2023-05-19T09:46:31.656Z,73.1924
2023-05-19T09:47:32.666Z,73.4340
2023-05-19T09:48:33.706Z,74.2019
2023-05-19T09:49:34.749Z,74.2336
2023-05-19T09:50:35.836Z,73.6895
2023-05-19T09:51:36.795Z,74.0012
2023-05-19T09:52:37.833Z,74.0869
2023-05-19T09:53:38.978Z,74.1679
2023-05-19T09:54:39.939Z,74.1081
2023-05-19T09:55:40.944Z,73.0698
2023-05-19T09:56:42.012Z,73.5797
2023-05-19T09:57:43.022Z,73.8776
2023-05-19T09:58:44.088Z,73.7041
2023-05-19T09:59:45.160Z,73.9142
2023-05-19T10:00:46.193Z,73.3941
2023-05-19T10:01:47.221Z,73.9567
2023-05-19T10:02:48.287Z,73.5948
2023-05-19T10:03:49.263Z,73.0212
2023-05-19T10:04:50.365Z,72.8763
2023-05-19T10:05:51.397Z,72.4556
2023-05-19T10:06:52.420Z,72.3745
2023-05-19T10:07:53.418Z,72.1927
2023-05-19T10:08:54.462Z,72.0701
2023-05-19T10:09:56.670Z,72.7331
2023-05-19T10:10:56.665Z,72.6638
2023-05-19T10:11:57.614Z,73.0333
2023-05-19T10:12:58.647Z,72.9967
2023-05-19T10:13:59.701Z,72.5368
2023-05-19T10:15:00.734Z,72.5228
2023-05-19T10:16:02.139Z,71.4960
2023-05-19T10:17:03.021Z,72.6406
2023-05-19T10:18:03.876Z,72.7288
2023-05-19T10:19:04.966Z,72.8569
2023-05-19T10:20:05.931Z,71.9049
2023-05-19T10:21:07.012Z,71.7754
2023-05-19T10:22:08.032Z,71.5614
2023-05-19T10:23:09.195Z,71.8946
2023-05-19T10:24:11.472Z,72.3731
2023-05-19T10:25:11.152Z,72.0079
2023-05-19T10:26:12.207Z,71.7457
2023-05-19T10:27:13.272Z,71.4939
2023-05-19T10:28:14.256Z,71.6422
2023-05-19T10:29:15.301Z,71.8699
2023-05-19T10:30:16.735Z,71.6356
2023-05-19T10:31:17.418Z,72.3166
2023-05-19T10:32:18.494Z,72.1249
2023-05-19T10:33:19.584Z,72.7503
2023-05-19T10:34:20.496Z,72.3849
2023-05-19T10:35:21.572Z,71.9097
2023-05-19T10:36:22.615Z,72.3252
2023-05-19T10:37:23.659Z,71.7646
2023-05-19T10:38:24.666Z,71.7296
2023-05-19T10:39:25.741Z,71.3865
2023-05-19T10:40:26.783Z,70.8256
2023-05-19T10:41:27.830Z,71.2681
2023-05-19T10:42:28.880Z,71.4438
2023-05-19T10:43:29.875Z,71.1201
2023-05-19T10:44:30.944Z,71.1066
2023-05-19T10:45:32.189Z,70.6041
2023-05-19T10:46:33.062Z,71.0205
2023-05-19T10:47:34.135Z,71.7824
2023-05-19T10:48:35.167Z,71.4827
2023-05-19T10:49:36.113Z,71.1927
2023-05-19T10:50:37.190Z,71.1252
2023-05-19T10:51:38.248Z,71.3663
2023-05-19T10:52:39.295Z,71.0260
2023-05-19T10:53:40.351Z,71.6197
2023-05-19T10:54:41.372Z,71.3255
2023-05-19T10:55:42.380Z,71.0115
2023-05-19T10:56:43.431Z,70.2213
2023-05-19T10:57:44.463Z,69.6814
2023-05-19T10:58:45.570Z,69.3665
2023-05-19T10:59:46.545Z,69.7436
2023-05-19T11:00:47.608Z,69.6727
2023-05-19T11:01:48.633Z,69.5363
2023-05-19T11:02:49.848Z,69.8146
2023-05-19T11:03:50.839Z,69.6396
2023-05-19T11:04:52.149Z,69.6926
2023-05-19T11:05:52.799Z,69.6553
2023-05-19T11:06:53.910Z,69.6365
2023-05-19T11:07:54.903Z,69.7774
2023-05-19T11:08:55.988Z,70.0044
2023-05-19T11:09:56.984Z,70.2558
2023-05-19T11:10:58.029Z,70.3800
2023-05-19T11:11:59.042Z,70.1603
2023-05-19T11:13:00.104Z,70.0548
2023-05-19T11:14:01.206Z,70.9373
2023-05-19T11:15:02.204Z,71.0151
2023-05-19T11:16:03.193Z,71.2115
2023-05-19T11:17:04.323Z,71.2331
2023-05-19T11:18:05.383Z,70.6818
2023-05-19T11:19:06.418Z,69.7756
2023-05-19T11:20:07.428Z,69.6934
2023-05-19T11:21:08.484Z,69.4248
2023-05-19T11:22:09.479Z,69.0228
2023-05-19T11:23:10.684Z,68.6725
2023-05-19T11:24:11.559Z,68.6902
2023-05-19T11:25:12.622Z,68.4280
2023-05-19T11:26:13.633Z,68.3101
2023-05-19T11:27:14.673Z,68.4568
2023-05-19T11:28:15.697Z,68.8885
2023-05-19T11:29:16.793Z,69.3221
2023-05-19T11:30:17.814Z,69.2230
2023-05-19T11:31:18.850Z,69.3159
2023-05-19T11:32:19.932Z,69.9900
2023-05-19T11:33:21.022Z,69.8998
2023-05-19T11:34:21.993Z,69.6503
2023-05-19T11:35:23.074Z,69.8252
2023-05-19T11:36:24.030Z,69.7052
2023-05-19T11:37:25.101Z,70.0816
2023-05-19T11:38:26.112Z,69.9583
2023-05-19T11:39:27.209Z,69.4722
2023-05-19T11:40:28.252Z,68.9592
2023-05-19T11:41:29.330Z,68.5345
2023-05-19T11:42:30.303Z,68.1666
2023-05-19T11:43:31.355Z,68.4677
2023-05-19T11:44:32.401Z,68.2332
2023-05-19T11:45:33.594Z,67.5525
2023-05-19T11:46:34.571Z,67.1788
2023-05-19T11:47:46.490Z,66.7031
2023-05-19T11:48:36.550Z,67.3001
2023-05-19T11:49:37.581Z,66.3381
2023-05-19T11:50:38.692Z,66.3691
2023-05-19T11:51:39.682Z,66.9613
2023-05-19T11:52:40.704Z,66.8311
2023-05-19T11:53:41.732Z,66.2229
2023-05-19T11:54:42.773Z,66.4482
2023-05-19T11:55:44.090Z,66.1082
2023-05-19T11:56:44.903Z,65.9130
2023-05-19T11:57:56.052Z,65.6754
2023-05-19T11:58:47.016Z,65.1100
2023-05-19T11:59:47.957Z,65.3571
2023-05-19T12:00:49.010Z,65.6636
2023-05-19T12:01:50.091Z,65.8152
2023-05-19T12:02:51.191Z,65.1743
2023-05-19T12:03:52.397Z,65.4116
2023-05-19T12:04:53.241Z,64.5761
2023-05-19T12:05:54.295Z,63.1550
2023-05-19T12:06:55.237Z,63.6784
2023-05-19T12:07:56.326Z,63.7781
2023-05-19T12:08:57.369Z,64.7417
2023-05-19T12:09:58.365Z,64.7260
2023-05-19T12:10:59.405Z,64.5663
2023-05-19T12:12:00.480Z,64.9208
2023-05-19T12:13:01.504Z,63.8436
2023-05-19T12:14:02.559Z,63.9830
2023-05-19T12:15:03.534Z,64.0176
2023-05-19T12:16:04.652Z,64.6086
2023-05-19T12:17:05.624Z,63.6105
2023-05-19T12:18:06.898Z,63.6064